Time;durP1;ratioP1;P1;durP2;ratioP2;P2;SDS_P1;SDS_P2;PMS_P1;PMS_P2;Temp;Humidity;BMP_temperature;BMP_pressure;BME280_temperature;BME280_humidity;BME280_pressure;Samples;Min_cycle;Max_cycle;Signal;HPM_P1;HPM_P2
2023/01/11 00:01:52;;;;;;;4.70;1.58;;;6.30;93.70;;;;;;4988259;28;20454;-70
2023/01/11 00:04:19;;;;;;;5.85;1.50;;;6.20;93.90;;;;;;4990811;28;20034;-70
2023/01/11 00:06:45;;;;;;;6.00;1.75;;;6.20;93.70;;;;;;5000575;28;20065;-70
2023/01/11 00:09:11;;;;;;;8.00;1.95;;;6.10;93.90;;;;;;4992683;28;20165;-70
2023/01/11 00:11:37;;;;;;;6.38;1.75;;;6.10;93.90;;;;;;4993821;28;20042;-70
2023/01/11 00:14:03;;;;;;;9.68;2.40;;;6.20;93.90;;;;;;4994261;28;20058;-70
2023/01/11 00:16:29;;;;;;;4.00;1.50;;;6.20;93.80;;;;;;4993350;28;20091;-70
2023/01/11 00:18:56;;;;;;;6.53;1.75;;;6.30;93.60;;;;;;4991715;28;20041;-70
2023/01/11 00:21:21;;;;;;;10.77;2.15;;;6.20;93.90;;;;;;4991789;28;20034;-70
2023/01/11 00:23:48;;;;;;;6.05;1.77;;;6.20;93.60;;;;;;4989268;28;20027;-70
2023/01/11 00:26:15;;;;;;;9.73;1.80;;;6.20;93.70;;;;;;4995106;28;20145;-70
2023/01/11 00:28:41;;;;;;;10.55;1.35;;;6.20;93.90;;;;;;4997935;28;20034;-70
2023/01/11 00:31:07;;;;;;;4.38;1.42;;;6.20;93.80;;;;;;4992889;28;20081;-70
2023/01/11 00:33:33;;;;;;;11.05;1.70;;;6.20;93.70;;;;;;4994802;28;20341;-70
2023/01/11 00:35:58;;;;;;;6.75;1.85;;;6.20;93.50;;;;;;4995977;28;20525;-70
2023/01/11 00:38:43;;;;;;;6.43;1.73;;;6.20;93.60;;;;;;4989838;28;20030;-70
2023/01/11 00:49:23;;;;;;;7.53;1.63;;;6.10;94.10;;;;;;4994334;28;20585;-70
2023/01/11 00:51:49;;;;;;;11.20;1.67;;;6.20;93.90;;;;;;4993075;28;20117;-71
2023/01/11 00:54:15;;;;;;;12.35;1.95;;;6.20;93.80;;;;;;4992760;28;20044;-70
2023/01/11 00:56:41;;;;;;;9.73;1.80;;;6.30;93.80;;;;;;4989801;28;20038;-70
2023/01/11 00:59:07;;;;;;;5.97;1.75;;;6.20;93.60;;;;;;4992527;28;20096;-70
2023/01/11 01:01:33;;;;;;;6.57;1.52;;;6.20;93.80;;;;;;4987473;28;20038;-70
2023/01/11 01:03:59;;;;;;;6.30;1.52;;;6.10;93.90;;;;;;4990523;28;20113;-70
2023/01/11 01:06:26;;;;;;;9.43;2.20;;;6.10;93.80;;;;;;4985727;28;20030;-69
2023/01/11 01:08:52;;;;;;;10.63;2.08;;;6.00;94.00;;;;;;4991706;28;20026;-70
2023/01/11 01:11:18;;;;;;;11.93;2.10;;;6.00;94.10;;;;;;4994773;28;20037;-70
2023/01/11 01:16:31;;;;;;;6.45;1.63;;;6.00;94.10;;;;;;4992591;28;20045;-70
2023/01/11 01:18:59;;;;;;;13.85;2.42;;;6.00;94.10;;;;;;4988107;28;20557;-70
2023/01/11 01:21:26;;;;;;;4.43;1.83;;;6.10;94.30;;;;;;4989305;28;20038;-70
2023/01/11 01:23:53;;;;;;;4.78;1.55;;;6.10;93.90;;;;;;4989907;28;20072;-70
2023/01/11 01:26:19;;;;;;;3.75;1.48;;;6.10;94.30;;;;;;4987530;28;20578;-69
2023/01/11 01:28:44;;;;;;;4.10;1.80;;;6.10;94.30;;;;;;4991718;28;20033;-70
2023/01/11 01:31:10;;;;;;;10.35;1.83;;;6.10;94.20;;;;;;4989942;28;20025;-70
2023/01/11 01:33:36;;;;;;;7.13;1.80;;;6.20;94.00;;;;;;4992892;28;20117;-69
2023/01/11 01:36:02;;;;;;;9.32;1.88;;;6.30;93.70;;;;;;4992059;28;20042;-70
2023/01/11 01:38:28;;;;;;;8.68;2.20;;;6.40;93.50;;;;;;4988359;28;20050;-70
2023/01/11 01:40:55;;;;;;;4.78;1.70;;;6.40;93.30;;;;;;4990377;28;20072;-70
2023/01/11 01:43:25;;;;;;;8.32;1.80;;;6.20;93.60;;;;;;4987460;28;20066;-69
2023/01/11 01:45:51;;;;;;;13.23;3.70;;;6.10;94.10;;;;;;4992334;28;20617;-70
2023/01/11 01:48:24;;;;;;;7.50;1.50;;;6.10;94.10;;;;;;5002662;28;20038;-70
2023/01/11 01:50:58;;;;;;;8.00;1.67;;;6.10;94.30;;;;;;4987997;28;20038;-70
2023/01/11 01:53:39;;;;;;;8.32;1.77;;;6.20;94.10;;;;;;4994386;28;20123;-69
2023/01/11 01:56:12;;;;;;;6.72;1.55;;;6.20;94.00;;;;;;4989963;28;20168;-70
2023/01/11 01:58:43;;;;;;;8.45;1.55;;;6.30;93.80;;;;;;4992420;28;20189;-70
2023/01/11 02:03:56;;;;;;;;;;;6.20;93.90;;;;;;4992444;28;20042;-70
2023/01/11 02:06:22;;;;;;;7.70;1.50;;;6.20;94.00;;;;;;4989388;28;19921;-70
2023/01/11 02:08:55;;;;;;;9.27;1.77;;;6.20;94.10;;;;;;4987303;28;20116;-70
2023/01/11 02:11:30;;;;;;;6.95;1.73;;;6.20;94.10;;;;;;4990167;28;20113;-70
2023/01/11 02:14:02;;;;;;;7.28;1.83;;;6.20;93.90;;;;;;4986129;28;20813;-69
2023/01/11 02:16:28;;;;;;;5.55;1.50;;;6.10;94.20;;;;;;4993273;28;21060;-69
2023/01/11 02:18:56;;;;;;;7.45;1.60;;;6.20;94.40;;;;;;4997246;28;20056;-70
2023/01/11 02:21:41;;;;;;;7.82;1.48;;;6.30;94.00;;;;;;4992024;28;20030;-70
2023/01/11 02:24:22;;;;;;;8.52;1.75;;;6.30;93.60;;;;;;4995899;28;20042;-70
2023/01/11 02:27:13;;;;;;;5.88;2.05;;;6.30;93.50;;;;;;4996642;28;20049;-70
2023/01/11 02:29:51;;;;;;;5.35;1.30;;;6.20;93.80;;;;;;4996899;28;20084;-70
2023/01/11 02:32:16;;;;;;;9.77;1.48;;;6.10;93.80;;;;;;4990682;28;20088;-70
2023/01/11 02:35:19;;;;;;;4.45;1.40;;;6.10;94.10;;;;;;4998689;28;20065;-70
2023/01/11 02:37:50;;;;;;;8.00;1.27;;;6.20;93.80;;;;;;5001610;28;20044;-70
2023/01/11 02:40:22;;;;;;;4.07;1.33;;;6.20;93.70;;;;;;5000334;28;20042;-70
2023/01/11 02:45:51;;;;;;;6.65;1.63;;;6.30;93.90;;;;;;4991726;28;20125;-69
2023/01/11 02:48:30;;;;;;;6.03;1.30;;;6.20;93.80;;;;;;4995754;28;20085;-69
2023/01/11 02:51:09;;;;;;;8.20;1.02;;;6.30;93.80;;;;;;4993156;28;20409;-70
2023/01/11 02:53:42;;;;;;;10.88;1.55;;;6.40;93.60;;;;;;4995356;28;20038;-69
2023/01/11 02:56:15;;;;;;;5.32;1.13;;;6.50;93.20;;;;;;4986794;28;20739;-70
2023/01/11 02:58:44;;;;;;;7.78;1.50;;;6.60;93.40;;;;;;4996270;28;20472;-70
2023/01/11 03:01:10;;;;;;;13.20;1.60;;;6.60;92.90;;;;;;4995490;28;20041;-69
2023/01/11 03:03:36;;;;;;;4.68;1.38;;;6.50;93.10;;;;;;4993683;28;20030;-70
2023/01/11 03:06:12;;;;;;;8.25;1.90;;;6.50;93.30;;;;;;4993264;28;20033;-69
2023/01/11 03:08:56;;;;;;;5.50;1.52;;;6.60;93.00;;;;;;4989935;28;20038;-69
2023/01/11 03:14:59;;;;;;;6.10;1.00;;;6.70;92.90;;;;;;4963798;28;20102;-66
2023/01/11 03:17:49;;;;;;;5.13;1.20;;;6.70;92.80;;;;;;4994173;28;20117;-70
2023/01/11 03:20:27;;;;;;;6.10;1.08;;;6.70;92.70;;;;;;4996669;28;20038;-69
2023/01/11 03:23:12;;;;;;;3.42;1.30;;;6.60;93.10;;;;;;4991929;28;20030;-70
2023/01/11 03:25:56;;;;;;;8.00;1.70;;;6.60;93.20;;;;;;4994757;28;20069;-68
2023/01/11 03:28:37;;;;;;;3.72;1.15;;;6.70;92.80;;;;;;4989494;28;20040;-69
2023/01/11 03:31:28;;;;;;;3.13;1.10;;;6.70;93.10;;;;;;4990725;28;20049;-69
2023/01/11 03:34:24;;;;;;;4.60;1.25;;;6.80;93.00;;;;;;4992172;28;20030;-69
2023/01/11 03:37:03;;;;;;;8.90;1.38;;;6.80;93.00;;;;;;4993657;28;20042;-69
2023/01/11 03:39:44;;;;;;;4.82;1.20;;;6.90;92.80;;;;;;4991582;28;20045;-70
2023/01/11 03:42:14;;;;;;;6.80;1.50;;;6.90;92.80;;;;;;4996513;28;20394;-70
2023/01/11 03:44:43;;;;;;;6.32;1.00;;;6.80;92.70;;;;;;4996538;28;20111;-69
2023/01/11 03:47:13;;;;;;;6.05;1.88;;;6.80;92.90;;;;;;4993147;28;20042;-69
2023/01/11 03:49:53;;;;;;;5.28;1.10;;;6.90;92.90;;;;;;4994239;28;20044;-69
2023/01/11 03:52:27;;;;;;;3.55;0.80;;;6.90;92.90;;;;;;4987317;28;20497;-68
2023/01/11 03:54:55;;;;;;;4.93;0.80;;;6.90;93.00;;;;;;4993526;28;20038;-68
2023/01/11 03:57:22;;;;;;;5.00;1.17;;;7.00;92.90;;;;;;4995004;28;20049;-68
2023/01/11 03:59:49;;;;;;;6.28;1.20;;;6.90;93.40;;;;;;4991550;28;20026;-69
2023/01/11 04:02:33;;;;;;;3.95;0.70;;;7.00;93.00;;;;;;4997960;28;20038;-69
2023/01/11 04:04:59;;;;;;;6.63;1.10;;;6.90;93.30;;;;;;4993156;28;20034;-71
2023/01/11 04:07:24;;;;;;;5.88;1.00;;;7.00;93.30;;;;;;4996782;28;20034;-69
2023/01/11 04:09:50;;;;;;;4.45;1.02;;;6.90;93.50;;;;;;4988514;28;20034;-69
2023/01/11 04:12:16;;;;;;;4.63;0.95;;;6.90;93.40;;;;;;4991986;28;20035;-69
2023/01/11 04:14:41;;;;;;;2.45;1.08;;;7.00;93.50;;;;;;4988920;28;20033;-69
2023/01/11 04:17:07;;;;;;;3.95;1.00;;;7.10;93.40;;;;;;4994951;28;20150;-69
2023/01/11 04:19:33;;;;;;;3.08;0.93;;;7.10;93.60;;;;;;4990765;28;20030;-69
2023/01/11 04:21:59;;;;;;;5.70;0.88;;;7.10;93.60;;;;;;5003526;28;20081;-69
2023/01/11 04:24:25;;;;;;;4.25;0.95;;;7.00;93.70;;;;;;4997041;28;20468;-69
2023/01/11 04:26:50;;;;;;;7.03;1.10;;;7.00;94.00;;;;;;4999155;28;20049;-69
2023/01/11 04:29:16;;;;;;;2.90;0.85;;;7.00;93.80;;;;;;4992177;28;20033;-69
2023/01/11 04:31:42;;;;;;;3.05;0.50;;;7.00;94.00;;;;;;4994692;28;20030;-69
2023/01/11 04:34:08;;;;;;;5.28;1.08;;;6.90;93.90;;;;;;4987994;28;20041;-71
2023/01/11 04:36:33;;;;;;;2.25;0.75;;;7.00;93.90;;;;;;4996661;28;20042;-69
2023/01/11 04:38:59;;;;;;;3.55;1.00;;;7.00;94.10;;;;;;4987397;28;20458;-69
2023/01/11 04:44:10;;;;;;;4.32;0.80;;;7.00;94.20;;;;;;4998270;28;20038;-69
2023/01/11 04:46:35;;;;;;;2.60;0.82;;;7.10;94.40;;;;;;4998764;28;20097;-69
2023/01/11 04:49:02;;;;;;;2.78;0.70;;;7.10;94.10;;;;;;4994193;28;20038;-69
2023/01/11 04:51:27;;;;;;;3.55;0.77;;;7.20;94.20;;;;;;4990980;28;20030;-69
2023/01/11 04:53:53;;;;;;;2.85;0.60;;;7.20;94.40;;;;;;4989823;28;20092;-69
2023/01/11 04:56:19;;;;;;;1.98;0.77;;;7.20;94.20;;;;;;4989820;28;20386;-69
2023/01/11 04:58:45;;;;;;;5.22;1.00;;;7.30;94.10;;;;;;4985957;28;20121;-69
2023/01/11 05:01:16;;;;;;;2.97;0.80;;;7.30;94.00;;;;;;4990730;28;20038;-68
2023/01/11 05:03:43;;;;;;;2.58;0.90;;;7.30;94.30;;;;;;4986382;28;20500;-69
2023/01/11 05:06:09;;;;;;;3.17;0.88;;;7.20;94.30;;;;;;4995186;28;20045;-68
2023/01/11 05:08:34;;;;;;;5.20;0.65;;;7.20;94.50;;;;;;4997619;28;20490;-68
2023/01/11 05:11:03;;;;;;;3.17;0.70;;;7.10;94.60;;;;;;4989559;28;20501;-69
2023/01/11 05:13:41;;;;;;;3.45;0.90;;;7.20;94.70;;;;;;4992813;28;20441;-69
2023/01/11 05:16:06;;;;;;;4.07;1.00;;;7.30;94.50;;;;;;4986902;28;20038;-69
2023/01/11 05:18:32;;;;;;;3.65;0.70;;;7.40;94.30;;;;;;4989916;28;20053;-69
2023/01/11 05:20:58;;;;;;;5.78;1.00;;;7.50;94.20;;;;;;4987924;28;20034;-69
2023/01/11 05:23:24;;;;;;;1.15;0.60;;;7.50;94.50;;;;;;4988807;28;20104;-68
2023/01/11 05:25:49;;;;;;;4.53;0.98;;;7.60;94.50;;;;;;4989799;28;20018;-69
2023/01/11 05:28:15;;;;;;;2.83;0.93;;;7.60;94.40;;;;;;4994189;28;20631;-68
2023/01/11 05:30:41;;;;;;;2.92;1.05;;;7.50;94.60;;;;;;4994735;28;20033;-68
2023/01/11 05:33:06;;;;;;;3.38;1.35;;;7.50;94.80;;;;;;4992847;28;20124;-69
2023/01/11 05:35:32;;;;;;;3.58;1.10;;;7.50;95.00;;;;;;4990111;28;20038;-68
2023/01/11 05:37:58;;;;;;;2.28;0.90;;;7.50;95.00;;;;;;4991509;28;20304;-69
2023/01/11 05:40:23;;;;;;;4.15;0.98;;;7.40;95.10;;;;;;4987316;28;20034;-68
2023/01/11 05:42:49;;;;;;;2.13;0.70;;;7.40;95.00;;;;;;4992003;28;20030;-69
2023/01/11 05:45:27;;;;;;;7.03;0.93;;;7.40;94.80;;;;;;4989614;28;20034;-69
2023/01/11 05:47:53;;;;;;;2.20;0.70;;;7.40;94.90;;;;;;4992045;28;20045;-69
2023/01/11 05:50:19;;;;;;;5.10;0.95;;;7.40;94.50;;;;;;4996063;28;20034;-68
2023/01/11 05:52:45;;;;;;;4.90;0.80;;;7.40;94.60;;;;;;4996059;28;20108;-69
2023/01/11 05:55:11;;;;;;;2.28;0.70;;;7.50;94.90;;;;;;4997562;28;20132;-69
2023/01/11 05:57:40;;;;;;;4.43;0.85;;;7.60;94.30;;;;;;4994096;28;20133;-68
2023/01/11 06:00:07;;;;;;;3.60;0.75;;;7.70;93.80;;;;;;4992684;28;20038;-69
2023/01/11 06:02:36;;;;;;;1.27;0.57;;;7.70;93.80;;;;;;4994002;28;20034;-69
2023/01/11 06:05:02;;;;;;;6.85;1.30;;;7.70;94.00;;;;;;4987041;28;20710;-69
2023/01/11 06:07:28;;;;;;;4.10;0.90;;;7.40;94.30;;;;;;4993455;28;20485;-68
2023/01/11 06:09:53;;;;;;;1.42;0.60;;;7.40;94.50;;;;;;4990997;28;20038;-69
2023/01/11 06:12:19;;;;;;;3.65;0.88;;;7.40;94.90;;;;;;4996151;28;20092;-69
2023/01/11 06:14:45;;;;;;;2.17;0.70;;;7.40;94.60;;;;;;4998945;28;20096;-68
2023/01/11 06:17:11;;;;;;;1.13;0.65;;;7.40;94.60;;;;;;4995020;28;20066;-69
2023/01/11 06:19:36;;;;;;;3.05;1.08;;;7.40;94.60;;;;;;4995281;28;20044;-68
2023/01/11 06:22:02;;;;;;;4.30;1.00;;;7.40;94.80;;;;;;4988124;28;20109;-69
2023/01/11 06:24:28;;;;;;;8.07;1.25;;;7.40;94.70;;;;;;4990462;28;20026;-69
2023/01/11 06:26:54;;;;;;;4.88;0.90;;;7.50;94.80;;;;;;4993722;28;20905;-69
2023/01/11 06:29:20;;;;;;;2.13;0.88;;;7.40;94.80;;;;;;4989218;28;20474;-69
2023/01/11 06:31:46;;;;;;;5.03;1.08;;;7.40;95.00;;;;;;4995774;28;20465;-69
2023/01/11 06:34:11;;;;;;;3.30;0.90;;;7.30;95.00;;;;;;4997498;28;20034;-68
2023/01/11 06:36:38;;;;;;;3.28;0.77;;;7.30;95.10;;;;;;4991461;28;20069;-69
2023/01/11 06:39:04;;;;;;;1.58;0.80;;;7.40;95.10;;;;;;4999687;28;20084;-69
2023/01/11 06:41:30;;;;;;;3.33;0.68;;;7.40;94.90;;;;;;4994522;28;20026;-69
2023/01/11 06:43:56;;;;;;;10.75;1.20;;;7.50;94.80;;;;;;4993480;28;20029;-69
2023/01/11 06:46:22;;;;;;;0.95;0.60;;;7.50;94.80;;;;;;4991726;28;20034;-69
2023/01/11 06:48:47;;;;;;;1.15;0.65;;;7.50;94.80;;;;;;4998092;28;20069;-68
2023/01/11 06:51:14;;;;;;;1.67;0.80;;;7.40;95.10;;;;;;4992109;28;20038;-69
2023/01/11 06:53:42;;;;;;;2.67;0.65;;;7.50;95.00;;;;;;4998362;28;20033;-68
2023/01/11 06:56:12;;;;;;;3.35;0.80;;;7.50;94.70;;;;;;4999681;28;20469;-69
2023/01/11 06:58:38;;;;;;;4.13;1.27;;;7.40;95.00;;;;;;4996093;28;21220;-69
2023/01/11 07:01:04;;;;;;;2.00;0.60;;;7.40;95.00;;;;;;4995679;28;20038;-69
2023/01/11 07:03:30;;;;;;;6.10;0.93;;;7.50;95.10;;;;;;4991754;28;20018;-68
2023/01/11 07:05:56;;;;;;;1.95;0.90;;;7.40;95.30;;;;;;4993340;28;20116;-68
2023/01/11 07:08:24;;;;;;;2.45;0.70;;;7.40;95.40;;;;;;4995960;28;20041;-69
2023/01/11 07:10:50;;;;;;;3.47;1.00;;;7.40;95.40;;;;;;4992358;28;20042;-69
2023/01/11 07:13:16;;;;;;;4.85;0.75;;;7.50;95.20;;;;;;4995626;28;20053;-69
2023/01/11 07:15:48;;;;;;;3.40;0.88;;;7.50;95.30;;;;;;4999239;28;20037;-69
2023/01/11 07:18:14;;;;;;;5.35;1.02;;;7.50;95.20;;;;;;4989835;28;20045;-68
2023/01/11 07:20:40;;;;;;;2.35;0.80;;;7.50;95.50;;;;;;4997655;28;20030;-69
2023/01/11 07:23:06;;;;;;;4.00;1.05;;;7.50;95.60;;;;;;4995069;28;20091;-69
2023/01/11 07:25:33;;;;;;;6.63;1.80;;;7.50;95.50;;;;;;4997050;28;20030;-69
2023/01/11 07:28:01;;;;;;;2.67;0.80;;;7.60;95.30;;;;;;4997273;28;20095;-67
2023/01/11 07:30:29;;;;;;;2.00;0.82;;;7.70;95.20;;;;;;4988701;28;20053;-68
2023/01/11 07:32:57;;;;;;;1.48;1.38;;;7.70;95.00;;;;;;4993626;28;20050;-69
2023/01/11 07:35:23;;;;;;;4.10;0.98;;;7.60;95.50;;;;;;4993416;28;20042;-68
2023/01/11 07:37:49;;;;;;;4.00;1.02;;;7.60;95.40;;;;;;4990449;28;20356;-68
2023/01/11 07:40:16;;;;;;;4.25;1.20;;;7.60;95.40;;;;;;4990971;28;20046;-69
2023/01/11 07:45:36;;;;;;;5.50;1.42;;;7.80;95.20;;;;;;4993939;28;20565;-69
2023/01/11 07:48:08;;;;;;;2.65;1.00;;;7.90;94.90;;;;;;4988961;28;20042;-68
2023/01/11 07:50:39;;;;;;;3.20;0.75;;;8.00;95.00;;;;;;4993997;28;20038;-69
2023/01/11 07:53:05;;;;;;;3.30;0.98;;;7.80;95.00;;;;;;4987682;28;20044;-69
2023/01/11 07:55:32;;;;;;;1.83;0.90;;;7.80;95.10;;;;;;4993197;28;20041;-69
2023/01/11 07:57:57;;;;;;;3.13;1.00;;;7.80;95.20;;;;;;4994904;28;20053;-69
2023/01/11 08:00:24;;;;;;;4.40;1.23;;;7.90;95.10;;;;;;4993086;28;20035;-69
2023/01/11 08:02:51;;;;;;;3.58;1.10;;;7.80;95.40;;;;;;4995165;28;20036;-70
2023/01/11 08:05:20;;;;;;;2.00;0.88;;;7.90;95.50;;;;;;4985675;28;20081;-67
2023/01/11 08:07:46;;;;;;;3.78;0.82;;;7.90;95.20;;;;;;4990012;28;20061;-68
2023/01/11 08:10:13;;;;;;;5.13;1.80;;;8.00;95.30;;;;;;4994291;28;20045;-70
2023/01/11 08:15:28;;;;;;;3.00;0.75;;;8.00;95.40;;;;;;4989450;28;20048;-68
2023/01/11 08:17:53;;;;;;;2.72;0.93;;;8.00;95.50;;;;;;4989145;28;20397;-69
2023/01/11 08:20:19;;;;;;;3.35;1.00;;;8.00;96.10;;;;;;4996301;28;20037;-67
2023/01/11 08:22:47;;;;;;;11.23;5.00;;;8.10;96.10;;;;;;4990942;28;20122;-67
2023/01/11 08:25:12;;;;;;;4.20;1.80;;;8.10;96.20;;;;;;4988997;28;20099;-67
2023/01/11 08:27:38;;;;;;;1.02;0.68;;;8.10;96.60;;;;;;4993479;28;20034;-67
2023/01/11 08:30:05;;;;;;;2.42;1.27;;;8.10;96.70;;;;;;4991694;28;20033;-68
2023/01/11 08:32:31;;;;;;;3.85;1.27;;;8.10;96.60;;;;;;4993713;28;20033;-67
2023/01/11 08:34:56;;;;;;;8.40;1.67;;;8.10;96.80;;;;;;4989343;28;20847;-67
2023/01/11 08:37:22;;;;;;;2.17;1.08;;;8.00;97.50;;;;;;4990496;28;20038;-67
2023/01/11 08:39:48;;;;;;;2.03;0.95;;;7.80;98.50;;;;;;4998006;28;20030;-68
2023/01/11 08:42:14;;;;;;;5.13;1.10;;;7.80;99.30;;;;;;4995400;28;20453;-68
2023/01/11 08:44:40;;;;;;;3.88;0.90;;;7.70;99.40;;;;;;4994059;28;20375;-67
2023/01/11 08:47:06;;;;;;;3.85;1.35;;;7.60;99.90;;;;;;4993042;28;20049;-68
2023/01/11 08:49:32;;;;;;;3.45;1.35;;;7.50;99.90;;;;;;4998127;28;20041;-68
2023/01/11 08:51:58;;;;;;;3.00;1.40;;;7.50;99.90;;;;;;4996379;28;20037;-69
2023/01/11 08:54:24;;;;;;;2.50;1.63;;;7.50;99.90;;;;;;4983885;28;20542;-69
2023/01/11 08:56:49;;;;;;;3.83;1.40;;;7.50;99.90;;;;;;4992909;28;20029;-71
2023/01/11 08:59:15;;;;;;;4.53;1.52;;;7.50;99.90;;;;;;4988853;28;20034;-69
2023/01/11 09:01:41;;;;;;;4.75;1.40;;;7.50;99.90;;;;;;4998700;28;20064;-69
2023/01/11 09:04:07;;;;;;;2.28;1.33;;;7.40;99.90;;;;;;4990388;28;20053;-70
2023/01/11 09:06:32;;;;;;;3.53;1.20;;;7.40;99.90;;;;;;4992739;28;20340;-70
2023/01/11 09:08:58;;;;;;;4.75;1.40;;;7.50;99.90;;;;;;4993895;28;20919;-69
2023/01/11 09:14:08;;;;;;;1.27;0.93;;;7.50;99.90;;;;;;4990510;28;20143;-70
2023/01/11 09:16:34;;;;;;;2.80;1.05;;;7.60;99.90;;;;;;4995110;28;20133;-69
2023/01/11 09:19:00;;;;;;;2.40;1.40;;;7.60;99.90;;;;;;4999892;28;20053;-70
2023/01/11 09:21:26;;;;;;;3.42;1.30;;;7.60;99.90;;;;;;4994325;28;20065;-70
2023/01/11 09:23:51;;;;;;;2.63;1.30;;;7.50;99.90;;;;;;5001030;28;20057;-70
2023/01/11 09:26:17;;;;;;;4.53;1.30;;;7.40;99.90;;;;;;4997601;28;20030;-69
2023/01/11 09:28:43;;;;;;;4.18;1.35;;;7.50;99.90;;;;;;4997750;28;20030;-69
2023/01/11 09:31:09;;;;;;;1.88;1.10;;;7.40;99.90;;;;;;5001924;28;20040;-71
2023/01/11 09:33:37;;;;;;;1.50;1.25;;;7.50;99.90;;;;;;5001310;28;20464;-70
2023/01/11 09:36:03;;;;;;;1.73;1.25;;;7.40;99.90;;;;;;5000340;28;20128;-70
2023/01/11 09:38:29;;;;;;;1.60;1.10;;;7.60;99.90;;;;;;4999438;28;20042;-70
2023/01/11 09:41:33;;;;;;;1.65;1.27;;;7.70;99.90;;;;;;5003873;28;20061;-70
2023/01/11 09:44:13;;;;;;;2.60;1.30;;;7.70;99.90;;;;;;5004860;28;20061;-69
2023/01/11 09:46:41;;;;;;;2.33;1.13;;;7.80;99.90;;;;;;5002023;28;20148;-70
2023/01/11 09:49:15;;;;;;;5.32;1.30;;;7.80;99.90;;;;;;5000229;28;20052;-70
2023/01/11 09:51:42;;;;;;;4.88;1.40;;;7.80;99.90;;;;;;5001572;28;20144;-70
2023/01/11 09:54:15;;;;;;;2.38;1.27;;;7.80;99.90;;;;;;5000189;28;20465;-72
2023/01/11 09:56:51;;;;;;;5.50;1.13;;;7.70;99.90;;;;;;4997598;28;20835;-70
2023/01/11 09:59:32;;;;;;;4.65;1.10;;;7.70;99.90;;;;;;5002397;28;20076;-71
2023/01/11 10:02:04;;;;;;;2.35;1.20;;;7.80;99.90;;;;;;4997729;28;20022;-69
2023/01/11 10:04:43;;;;;;;3.45;1.17;;;7.90;99.90;;;;;;4992794;28;20438;-70
2023/01/11 10:07:15;;;;;;;1.95;1.02;;;8.00;99.90;;;;;;4997659;28;20401;-70
2023/01/11 10:10:23;;;;;;;3.50;1.48;;;8.10;99.90;;;;;;5011341;28;20029;-69
2023/01/11 10:13:14;;;;;;;2.28;1.23;;;8.10;99.90;;;;;;4991256;28;20038;-69
2023/01/11 10:15:58;;;;;;;4.10;1.35;;;8.20;99.90;;;;;;5002099;28;20425;-69
2023/01/11 10:18:41;;;;;;;3.10;1.20;;;8.30;99.90;;;;;;4993977;28;20478;-69
2023/01/11 10:21:22;;;;;;;1.92;1.30;;;8.30;99.90;;;;;;4998366;28;20072;-69
2023/01/11 10:24:27;;;;;;;2.47;1.20;;;8.40;99.90;;;;;;4995465;28;20034;-68
2023/01/11 10:26:57;;;;;;;2.67;0.93;;;8.40;99.90;;;;;;4977112;28;20118;-70
2023/01/11 10:29:52;;;;;;;2.30;1.02;;;8.50;99.90;;;;;;4978160;28;20501;-69
2023/01/11 10:42:09;;;;;;;1.42;0.93;;;8.70;99.90;;;;;;4992696;28;20030;-69
2023/01/11 10:44:51;;;;;;;3.63;1.80;;;8.70;99.90;;;;;;4999635;28;20034;-69
2023/01/11 10:47:26;;;;;;;3.53;1.60;;;8.80;99.90;;;;;;4999483;28;20696;-69
2023/01/11 10:50:03;;;;;;;6.03;2.50;;;8.90;99.90;;;;;;4997942;28;20029;-75
2023/01/11 10:52:33;;;;;;;1.42;1.08;;;8.90;99.90;;;;;;4998445;28;20041;-74
2023/01/11 10:55:11;;;;;;;2.30;1.10;;;9.00;99.90;;;;;;4998259;28;20057;-74
2023/01/11 10:57:42;;;;;;;1.38;1.00;;;8.90;99.90;;;;;;4991547;28;20146;-75
2023/01/11 11:00:32;;;;;;;1.42;0.98;;;8.90;99.90;;;;;;4991258;28;20581;-74
2023/01/11 11:03:10;;;;;;;1.15;0.88;;;9.00;99.90;;;;;;4993496;28;20057;-75
2023/01/11 11:05:45;;;;;;;0.90;0.85;;;9.00;99.90;;;;;;4994489;28;20117;-72
2023/01/11 11:08:34;;;;;;;3.03;1.15;;;9.10;99.90;;;;;;5009496;28;20046;-71
2023/01/11 11:11:12;;;;;;;1.42;1.20;;;9.10;99.90;;;;;;4992043;28;20041;-69
2023/01/11 11:13:38;;;;;;;5.18;1.30;;;9.10;99.90;;;;;;4995128;28;20049;-69
2023/01/11 11:16:22;;;;;;;1.13;0.90;;;9.20;99.90;;;;;;4996851;28;20038;-69
2023/01/11 11:18:53;;;;;;;2.33;0.88;;;9.20;99.90;;;;;;4993786;28;20037;-68
2023/01/11 11:21:23;;;;;;;2.45;0.98;;;9.30;99.90;;;;;;4993039;28;20038;-69
2023/01/11 11:23:55;;;;;;;1.30;0.77;;;9.40;99.90;;;;;;4987959;28;20022;-68
2023/01/11 11:26:26;;;;;;;1.83;0.90;;;9.30;99.90;;;;;;4990561;28;20827;-69
2023/01/11 11:29:05;;;;;;;1.52;0.82;;;9.30;99.90;;;;;;4994205;28;20154;-69
2023/01/11 11:31:33;;;;;;;1.70;0.90;;;9.30;99.90;;;;;;4996852;28;20040;-69
2023/01/11 11:34:07;;;;;;;1.58;0.90;;;9.30;99.90;;;;;;4996223;28;20034;-68
2023/01/11 11:36:45;;;;;;;2.47;0.90;;;9.20;99.90;;;;;;4991604;28;20056;-68
2023/01/11 11:39:17;;;;;;;3.15;1.02;;;9.10;99.90;;;;;;4993357;28;20042;-68
2023/01/11 11:41:46;;;;;;;0.90;0.80;;;9.00;99.90;;;;;;4987798;28;20114;-67
2023/01/11 11:44:24;;;;;;;1.63;1.05;;;9.10;99.90;;;;;;4995316;28;20025;-70
2023/01/11 11:47:04;;;;;;;2.17;0.88;;;9.10;99.90;;;;;;4988151;28;20026;-70
2023/01/11 11:49:32;;;;;;;2.85;1.08;;;9.10;99.90;;;;;;4987167;28;20716;-70
2023/01/11 11:52:00;;;;;;;1.08;0.70;;;9.20;99.90;;;;;;4989441;28;20058;-70
2023/01/11 11:54:30;;;;;;;1.48;0.90;;;9.10;99.90;;;;;;4997840;28;20125;-70
2023/01/11 11:56:58;;;;;;;2.72;0.70;;;9.00;99.90;;;;;;4994866;28;20112;-69
2023/01/11 11:59:28;;;;;;;0.82;0.80;;;9.00;99.90;;;;;;4997992;28;20034;-69
2023/01/11 12:02:01;;;;;;;1.15;0.77;;;9.20;99.90;;;;;;4992400;28;20143;-69
2023/01/11 12:04:39;;;;;;;1.05;0.80;;;9.20;99.90;;;;;;4996223;28;20030;-69
2023/01/11 12:07:07;;;;;;;1.05;0.90;;;9.10;99.90;;;;;;4994309;28;20033;-70
2023/01/11 12:09:34;;;;;;;1.48;0.88;;;9.10;99.90;;;;;;4989774;28;20496;-68
2023/01/11 12:12:01;;;;;;;2.63;0.90;;;9.00;99.90;;;;;;4997866;28;20040;-69
2023/01/11 12:14:33;;;;;;;0.57;0.57;;;9.00;99.90;;;;;;4991026;28;20037;-69
2023/01/11 12:17:14;;;;;;;2.58;1.05;;;9.00;99.90;;;;;;4993667;28;20041;-70
2023/01/11 12:19:46;;;;;;;0.90;0.80;;;9.20;99.90;;;;;;4993051;28;20400;-73
2023/01/11 12:22:21;;;;;;;1.05;0.90;;;9.20;99.90;;;;;;4992101;28;20100;-72
2023/01/11 12:25:02;;;;;;;1.95;0.98;;;9.10;99.90;;;;;;4986360;28;20032;-69
2023/01/11 12:27:42;;;;;;;2.17;0.80;;;9.10;99.90;;;;;;4994483;28;20065;-70
2023/01/11 12:30:25;;;;;;;3.70;0.80;;;9.10;99.90;;;;;;4991501;28;20030;-70
2023/01/11 12:33:00;;;;;;;1.38;0.90;;;9.10;99.90;;;;;;4996890;28;20095;-70
2023/01/11 12:35:37;;;;;;;1.25;0.73;;;9.20;99.90;;;;;;4999320;28;20049;-70
2023/01/11 12:38:19;;;;;;;1.40;0.90;;;9.30;99.90;;;;;;4992112;28;20473;-70
2023/01/11 12:41:10;;;;;;;0.80;0.73;;;9.30;99.90;;;;;;5000927;28;20125;-70
2023/01/11 12:43:45;;;;;;;0.70;0.60;;;9.30;99.90;;;;;;4992065;28;20046;-69
2023/01/11 12:46:49;;;;;;;1.88;0.57;;;9.10;99.90;;;;;;5019187;22;20049;-70
2023/01/11 12:49:53;;;;;;;1.80;0.70;;;9.10;99.90;;;;;;5020736;28;20183;-71
2023/01/11 12:52:40;;;;;;;2.45;0.63;;;9.10;99.90;;;;;;4970072;28;20039;-70
2023/01/11 12:55:40;;;;;;;0.98;0.70;;;9.10;99.90;;;;;;5017309;28;20042;-70
2023/01/11 12:58:12;;;;;;;0.82;0.60;;;9.10;99.90;;;;;;5015051;28;20041;-70
2023/01/11 13:00:55;;;;;;;1.27;0.85;;;9.00;99.90;;;;;;5020555;28;20176;-72
2023/01/11 13:03:48;;;;;;;1.33;0.70;;;9.10;99.90;;;;;;5018721;28;20094;-69
2023/01/11 13:06:29;;;;;;;3.13;1.80;;;9.10;99.90;;;;;;5027425;28;20061;-71
2023/01/11 13:08:55;;;;;;;1.92;1.38;;;9.20;99.90;;;;;;5022538;28;20040;-70
2023/01/11 13:11:44;;;;;;;2.15;0.80;;;9.20;99.90;;;;;;5018451;28;20038;-70
2023/01/11 13:14:43;;;;;;;9.38;4.40;;;9.30;99.90;;;;;;5016828;28;20033;-70
2023/01/11 13:17:22;;;;;;;2.40;1.30;;;9.30;99.90;;;;;;5014774;28;20029;-72
2023/01/11 13:20:12;;;;;;;1.02;0.63;;;9.30;99.90;;;;;;5019704;28;20040;-70
2023/01/11 13:22:45;;;;;;;2.08;1.48;;;9.20;99.90;;;;;;5012355;28;20533;-70
2023/01/11 13:25:25;;;;;;;1.58;0.93;;;9.30;99.90;;;;;;5021969;28;20044;-69
2023/01/11 13:27:53;;;;;;;1.30;1.20;;;9.30;99.90;;;;;;5012682;28;20561;-69
2023/01/11 13:30:23;;;;;;;1.33;0.80;;;9.40;99.90;;;;;;5010368;28;20106;-69
2023/01/11 13:32:58;;;;;;;0.85;0.57;;;9.40;99.90;;;;;;5018876;28;20094;-70
2023/01/11 13:35:41;;;;;;;0.73;0.63;;;9.30;99.90;;;;;;5016256;28;20041;-69
2023/01/11 13:38:30;;;;;;;1.25;0.80;;;9.30;99.90;;;;;;5017206;28;20051;-69
2023/01/11 13:41:05;;;;;;;0.68;0.63;;;9.40;99.90;;;;;;5013879;28;20037;-69
2023/01/11 13:43:34;;;;;;;1.70;0.90;;;9.40;99.90;;;;;;5017439;28;20065;-69
2023/01/11 13:46:09;;;;;;;10.68;3.40;;;9.30;99.90;;;;;;5011399;28;20038;-69
2023/01/11 13:48:44;;;;;;;2.08;1.38;;;9.40;99.90;;;;;;5015399;28;20123;-70
2023/01/11 13:51:13;;;;;;;2.15;0.70;;;9.50;99.90;;;;;;5010193;28;20038;-70
2023/01/11 13:54:02;;;;;;;0.77;0.60;;;9.50;99.90;;;;;;5012170;28;20037;-68
2023/01/11 13:56:31;;;;;;;1.42;0.70;;;9.50;99.90;;;;;;5009158;28;20026;-69
2023/01/11 13:59:00;;;;;;;1.20;0.90;;;9.50;99.90;;;;;;5016530;28;20033;-69
2023/01/11 14:01:46;;;;;;;4.80;2.10;;;9.50;99.90;;;;;;5024499;28;20033;-70